Hinkley, CA

1:36 PM PST on December 17, 2014 (GMT -0800)
Barstow-Daggett | Change Station
CLOSE
Current Station
Airport
Location: Daggett-Barstow,
Elevation: 1926 ft
Nearby Weather Stations

Elev 1926 ft 34.85 °N, 116.79 °W | Updated 46 minutes ago

Overcast
Overcast
50 °F
Feels Like 50 °F
N
0
Wind Variable Wind from North

Today
High -- | Low -- °F
--% Chance of Precip.
Yesterday
High -- | Low -- °F
Precip. -- in
6:50 AM 4:39 PM
Waning Crescent, 19% visible
Pressure 30.01 in
Visibility 10.0 miles
Clouds Overcast 4900 ft
Dew Point 42 °F
Humidity 74%
Rainfall 0.10 in
Snow Depth Not available.
UV 1 out of 12
Pollen .90 out of 12
Air Quality Not available.
Flu Activity Not available.
METAR KDAG 172050Z AUTO 00000KT 10SM OVC049 10/06 A3003 RMK AO2 SLP163 T01000056 58010

More Conditions Fewer Conditions

Pressure 30.01 in
Visibility 10.0 miles
Clouds Overcast 4900 ft
Dew Point 42 °F
Humidity 74%
Rainfall 0.10 in
Snow Depth Not available.
UV 1 out of 12
Pollen .90 out of 12
Air Quality Not available.
Flu Activity Not available.
METAR KDAG 172050Z AUTO 00000KT 10SM OVC049 10/06 A3003 RMK AO2 SLP163 T01000056 58010

More Conditions Fewer Conditions

10-Day Weather Forecast

Almanac

Astronomy

Dec. 17, 2014 Rise Set
Actual Time
Civil Twilight
Nautical Twilight
Astronomical Twilight
Moon
Length of Visible Light
Length of Day
Tomorrow will be .
, % of the Moon is Illuminated

Today's Extremes

State Highs State Lows

Community

WunderPhotos

Upload Photos

1,778,807 photos uploaded!

WunderBlogs® & News

Nearby

Air Quality

  Air Quality AQ Index Pollutant
Not available.

Snow Depth

Station Depth Elevation

Earthquake Activity

City Distance Mag. Time & Date
Minimum magnitude displayed is 2.5.

Coastal Water Temperatures

Place Temperature

Nearby Weather Stations